Località Giorno Ora Temp. Umid. Relat. Dew Point Press. Atm. Velocità Vento Direz. Vento Precip. Temp.
Min
Temp.
Max
Abano (PD) 24/11/17 00.35 7.6 °C 92 % 6.4 °C 1020.6 hPa 0.0 Km/h NW 0.0 mm  7.6 °C 8.1 °C
Acquaviva delle Fonti (BA) 24/11/17 00.33 9.3 °C 88 % 7.4 °C 1021.1 hPa 1.3 Km/h SW 0.0 mm  8.8 °C 9.3 °C
Ala (TN) 24/11/17 00.33 5.3 °C 83 % 2.6 °C 1022.0 hPa 0.0 Km/h ENE 0.0 mm  5.4 °C 5.6 °C
Alleghe (BL) 23/11/17 18.51 1.8 °C 74 % -2.3 °C 1006.0 hPa 0.0 Km/h SE 0.0 mm  -1.5 °C 5.1 °C
Alleghe Lago (BL) 24/11/17 00.34 0.2 °C 83 % -2.3 °C 1020.1 hPa 3.2 Km/h NNW 0.0 mm  0.1 °C 0.9 °C
Ancona (AN) 24/11/17 00.35 10.3 °C 80 % 7.0 °C 1022.2 hPa 0.0 Km/h --- 0.0 mm  10.3 °C 10.9 °C
Arenzano (GE) 24/11/17 00.33 13.8 °C 79 % 10.3 °C 1021.1 hPa 8.0 Km/h ENE 0.0 mm  13.8 °C 13.8 °C
Arquà Polesine (RO) 24/11/17 00.31 8.9 °C 93 % 7.8 °C 1016.4 hPa 0.0 Km/h N 0.0 mm  8.9 °C 8.9 °C
Arzignano loc. Castello (VI) 23/11/17 22.45 6.6 °C 90 % 5.1 °C 1021.2 hPa 0.0 Km/h NNW 0.0 mm  6.6 °C 12.8 °C
Arzignano Pugnello (VI) 24/11/17 00.33 6.1 °C 87 % 3.9 °C 1019.7 hPa 3.0 Km/h W 0.0 mm  5.7 °C 6.1 °C
Arzignano San Bortolo (VI) 24/11/17 00.44 8.6 °C 81 % 5.5 °C 1018.8 hPa 8.0 Km/h WNW 0.0 mm  8.4 °C 8.6 °C
Arzignano Tezze (VI) 24/11/17 00.41 3.3 °C 97 % 2.9 °C 1021.2 hPa 0.0 Km/h N 0.0 mm  3.3 °C 3.6 °C
Asiago Rifugio Val Formica (VI) 23/11/17 15.50 2.4 °C 85 % 0.2 °C 1019.5 hPa 0.0 Km/h N 0.0 mm  2.4 °C 2.7 °C
Avenza-Carrara (MS) 24/11/17 00.25 13.1 °C 76 % 8.9 °C 1022.8 hPa 0.0 Km/h --- 0.0 mm  13.0 °C 13.3 °C
Avio (TN) 24/11/17 00.34 6.6 °C 77 % 2.9 °C 1021.2 hPa 0.0 Km/h NE 0.0 mm  6.6 °C 7.1 °C
Badia Calavena loc. San Valentino (VR) 24/11/17 00.33 5.3 °C 84 % 2.8 °C 1019.0 hPa 4.8 Km/h NNW 0.0 mm  5.2 °C 5.3 °C
Barbara (AN) 24/11/17 00.33 12.6 °C 71 % 7.5 °C 1024.0 hPa 4.7 Km/h W 0.0 mm  12.3 °C 12.6 °C
Barcellona P.G. Centro (ME) 24/11/17 00.33 11.8 °C 83 % 9.0 °C 1022.8 hPa 6.4 Km/h ESE 0.0 mm  11.8 °C 11.9 °C
Barcellona Pozzo di Gotto (ME) 24/11/17 00.33 12.7 °C 87 % 10.6 °C 1022.3 hPa 6.1 Km/h WSW 0.0 mm  12.4 °C 12.7 °C
Bardolino (VR) 24/11/17 00.33 7.7 °C 74 % 3.3 °C 1014.3 hPa 31.0 Km/h E 0.0 mm  7.7 °C 8.4 °C
Bassano del Grappa (VI) 23/11/17 20.50 6.8 °C 78 % 3.3 °C 1007.7 hPa 0.0 Km/h ENE 0.0 mm  5.9 °C 12.3 °C
Bellaria Igea Marina (RN) 24/11/17 00.33 8.2 °C 95 % 7.5 °C 1021.0 hPa 0.0 Km/h WNW 0.0 mm  8.2 °C 8.4 °C
Bellaria Igea Marina2 (RN) 24/11/17 00.33 8.4 °C 96 % 7.8 °C 1020.8 hPa 3.2 Km/h NW 0.0 mm  8.4 °C 8.6 °C
Bellaria Igea Marina3 (RN) 24/11/17 00.33 7.9 °C 76 % 3.9 °C 1017.6 hPa 0.0 Km/h W 0.0 mm  2.4 °C 13.4 °C
Belluno Castion (BL) 24/11/17 00.15 1.5 °C 91 % 0.2 °C 1022.7 hPa 0.0 Km/h SSE 0.0 mm  1.1 °C 1.7 °C
Besenello (TN) 24/11/17 00.34 3.6 °C 82 % 0.8 °C 1023.5 hPa 4.1 Km/h WSW 0.0 mm  3.5 °C 4.3 °C
Besozzo (VA) 23/11/17 21.48 4.0 °C 92 % 2.8 °C 1021.2 hPa 0.0 Km/h --- 0.0 mm  4.0 °C 12.6 °C
Bientina (PI) 24/11/17 00.33 10.5 °C 92 % 9.3 °C 1020.8 hPa 1.0 Km/h NW 0.0 mm  10.5 °C 11.0 °C
Bisignano (CS) 24/11/17 00.33 8.7 °C 81 % 5.6 °C 1021.9 hPa 1.3 Km/h W 0.0 mm  8.7 °C 10.1 °C
Bitti (NU) 24/11/17 00.32 8.2 °C 80 % 5.0 °C 1021.2 hPa 3.6 Km/h SSW 0.0 mm  8.2 °C 8.3 °C
Bonorva (SS) 24/11/17 00.35 8.6 °C 77 % 4.8 °C 6.7 hPa 0.0 Km/h --- 1000.0 mm  8.3 °C 8.7 °C
Borgo Valsugana (TN) 24/11/17 00.36 0.8 °C 92 % -0.4 °C 1019.9 hPa 0.0 Km/h SSW 0.0 mm  0.7 °C 0.8 °C
Borgofranco d'Ivrea (TO) 24/11/17 00.34 6.4 °C 81 % 3.4 °C 1021.4 hPa 2.5 Km/h WSW 0.0 mm  5.9 °C 6.5 °C
Borore (NU) 24/11/17 00.34 7.7 °C 75 % 3.6 °C 1021.3 hPa 6.1 Km/h SSE 0.0 mm  7.6 °C 7.8 °C
Bresega (PD) 24/11/17 00.33 8.4 °C 93 % 7.2 °C 1021.4 hPa 0.0 Km/h NW 0.0 mm  8.4 °C 8.6 °C
Brolo c/da Parrazzà (ME) 24/11/17 00.40 11.9 °C 76 % 7.9 °C 1022.9 hPa 11.0 Km/h SE 0.0 mm  11.9 °C 12.9 °C
Brugine2 (PD) 24/11/17 00.29 7.1 °C 86 % 4.9 °C 1021.9 hPa 0.0 Km/h SSW 0.0 mm  7.1 °C 7.2 °C
Buccheri (SR) 24/11/17 00.16 7.2 °C 68 % 1.7 °C 1017.0 hPa 0.0 Km/h SW 0.0 mm  7.0 °C 7.4 °C
Budoia (PN) 24/11/17 00.30 5.2 °C 87 % 3.2 °C 1021.5 hPa 6.4 Km/h NW 0.0 mm  5.1 °C 5.2 °C
Ca' Gallo (PU) 24/11/17 00.40 8.6 °C 90 % 7.1 °C 1021.6 hPa 0.0 Km/h W 0.0 mm  8.4 °C 8.8 °C
Calcinato (BS) 24/11/17 00.33 7.2 °C 88 % 5.4 °C 1023.9 hPa 0.0 Km/h E 0.0 mm  7.0 °C 7.3 °C
Calliano (TN) 24/11/17 00.33 3.3 °C 85 % 1.1 °C 1022.5 hPa 8.0 Km/h NE 0.0 mm  2.9 °C 3.3 °C
Caltabellotta (AG) 24/11/17 00.30 11.1 °C 84 % 8.5 °C 1022.1 hPa 0.0 Km/h N 0.0 mm  11.1 °C 11.1 °C
Cammarata (AG) 24/11/17 00.33 10.8 °C 67 % 4.9 °C 1018.9 hPa 6.1 Km/h NW 0.0 mm  10.0 °C 10.8 °C
Campoformido (UD) 24/11/17 00.33 6.6 °C 83 % 3.9 °C 1021.7 hPa 0.0 Km/h NNE 0.0 mm  6.2 °C 6.6 °C
Camposampiero (PD) 24/11/17 00.39 5.5 °C 89 % 3.8 °C 1021.0 hPa 0.0 Km/h NW 0.0 mm  5.5 °C 5.6 °C
Capodimonte (VT) 24/11/17 00.30 11.3 °C 95 % 10.6 °C 1023.7 hPa 0.0 Km/h N 0.0 mm  11.3 °C 11.5 °C
Caprarola Centro Storico (VT) 24/11/17 00.33 11.0 °C 100 % 11.0 °C 1020.0 hPa 0.0 Km/h SSW 0.0 mm  10.9 °C 11.1 °C
Caprino (VR) 24/11/17 00.33 4.8 °C 90 % 3.3 °C 1019.8 hPa 0.0 Km/h NNW 0.0 mm  4.8 °C 5.2 °C
Carceri (PD) 24/11/17 00.35 8.3 °C 93 % 7.2 °C 1020.5 hPa 1.6 Km/h NW 0.0 mm  8.3 °C 8.4 °C
Carmignano loc. Seano (PO) 24/11/17 00.34 10.0 °C 92 % 8.8 °C 1022.1 hPa 0.0 Km/h E 0.0 mm  10.0 °C 10.6 °C
Carpi (MO) 24/11/17 00.34 5.6 °C 95 % 4.9 °C 1020.8 hPa 0.0 Km/h SSW 0.0 mm  5.4 °C 6.2 °C
Cartigliano (VI) 24/11/17 00.33 4.3 °C 93 % 3.2 °C 1020.8 hPa 0.0 Km/h SW 0.0 mm  4.3 °C 4.6 °C
Cartura (PD) 24/11/17 00.33 7.2 °C 90 % 5.6 °C 1021.3 hPa 5.6 Km/h NNW 0.0 mm  7.2 °C 7.8 °C
Cassano Magnago (VA) 24/11/17 00.43 5.1 °C 96 % 4.4 °C 1020.9 hPa 0.0 Km/h E 0.3 mm  5.1 °C 5.2 °C
Castel d'Azzano (VR) 24/11/17 00.25 7.0 °C 93 % 5.9 °C 1073.1 hPa 0.0 Km/h --- 0.0 mm  7.0 °C 7.3 °C
Castelfranco Veneto (TV) 21/11/17 18.55 6.7 °C 83 % 4.0 °C 1019.4 hPa 0.0 Km/h --- 0.0 mm  1.3 °C 12.3 °C
Castelfranco Veneto2 (TV) 23/11/17 23.29 -573.3 °C 255 % -73.3 °C 1021.2 hPa 0.0 Km/h N 0.0 mm  -573.3 °C -573.3 °C
Castelgomberto (VI) 23/11/17 11.51 12.1 °C 69 % 6.6 °C 1018.9 hPa 5.2 Km/h ENE 0.0 mm  7.6 °C 12.4 °C
Castelnuovo V.C. (PI) 24/11/17 00.31 9.7 °C 96 % 9.1 °C 1020.8 hPa 0.2 Km/h WSW 0.0 mm  9.7 °C 9.9 °C
Castiglione del Lago (PG) 24/11/17 00.30 7.2 °C 74 % 2.8 °C 1025.3 hPa 0.0 Km/h --- 0.0 mm  5.7 °C 7.3 °C
Castiglione della Pescaia Vaticino (GR) 24/11/17 00.30 13.0 °C 1 % -42.0 °C 1021.2 hPa 0.0 Km/h WNW 0.0 mm  12.4 °C 13.1 °C
Cavaria con Premezzo (VA) 24/11/17 00.33 5.1 °C 95 % 4.4 °C 1020.9 hPa 2.0 Km/h NNE 0.0 mm  5.1 °C 5.3 °C
Cefalù (PA) 24/11/17 00.33 13.5 °C 73 % 8.8 °C 1019.2 hPa 5.8 Km/h S 0.0 mm  13.2 °C 13.5 °C
Cerea (VR) 23/11/17 23.25 8.3 °C 93 % 7.3 °C 1021.6 hPa 0.0 Km/h NE 0.0 mm  6.5 °C 13.2 °C
Cerea2 (VR) 24/11/17 00.40 8.2 °C 83 % 5.5 °C 1019.2 hPa -1000.0 Km/h N 0.0 mm  8.2 °C 8.2 °C
Cima Grappa (TV) 24/11/17 00.34 2.2 °C 76 % -1.6 °C 1023.8 hPa 6.7 Km/h W 0.0 mm  1.8 °C 2.2 °C
Cismon del Grappa loc. Corlo (VI) 24/11/17 00.34 2.4 °C 93 % 1.4 °C 1022.9 hPa 3.2 Km/h NNE 0.0 mm  2.2 °C 2.4 °C
Cittadella (PD) 23/11/17 22.49 6.3 °C 82 % 3.5 °C 1020.4 hPa 0.0 Km/h SE 0.0 mm  6.3 °C 13.9 °C
Civita Castellana (VT) 24/11/17 00.34 7.9 °C 90 % 6.4 °C 1022.9 hPa 0.2 Km/h NNE 0.0 mm  7.6 °C 7.9 °C
Cogollo del Cengio (VI) 24/11/17 00.29 4.7 °C 95 % 4.0 °C 1019.7 hPa 7.6 Km/h NW 0.0 mm  4.6 °C 4.8 °C
Colle del Piccolo San Bernardo La Thuile (AO) 24/11/17 00.30 2.4 °C 68 % -2.8 °C 1021.2 hPa 12.9 Km/h SSW 0.0 mm  1.8 °C 2.4 °C
Colle S. Lucia Posalz (BL) 24/11/17 00.34 0.6 °C 80 % -2.5 °C 1026.2 hPa 0.0 Km/h SSW 0.0 mm  0.6 °C 0.8 °C
Cologna Veneta Sant'Andrea (VR) 24/11/17 00.35 6.1 °C 53 % -2.8 °C 1021.2 hPa 0.0 Km/h --- 0.0 mm  6.1 °C 6.6 °C
Colognola ai Colli (VR) 24/11/17 00.35 4.9 °C 93 % 3.9 °C 1022.5 hPa 1.6 Km/h NE 0.0 mm  4.8 °C 5.4 °C
Contrada Dosso Gervasio (VR) 24/11/17 00.30 5.2 °C 79 % 1.7 °C 1019.9 hPa 0.0 Km/h WNW 0.0 mm  5.2 °C 5.8 °C
Cosseria Lidora (SV) 24/11/17 00.30 5.9 °C 92 % 4.7 °C 1021.4 hPa 0.0 Km/h --- 0.0 mm  5.8 °C 6.3 °C
Costa di Vittorio Veneto (TV) 24/11/17 00.41 5.6 °C 86 % 3.4 °C 1020.5 hPa 0.0 Km/h NE 0.0 mm  5.6 °C 6.1 °C
Crespano del Grappa (TV) 24/11/17 00.41 4.9 °C 84 % 2.4 °C 1020.9 hPa 1.9 Km/h N 0.0 mm  4.9 °C 5.3 °C
Dorno (PV) 24/11/17 00.34 5.2 °C 96 % 4.6 °C 1022.2 hPa 0.0 Km/h NW 0.0 mm  5.2 °C 6.2 °C
Dossobuono (VR) 24/11/17 00.34 6.4 °C 91 % 5.1 °C 1022.6 hPa 1.6 Km/h NNW 0.0 mm  6.4 °C 7.1 °C
Esine (BS) 24/11/17 00.31 7.3 °C 74 % 2.9 °C 1020.6 hPa 1.4 Km/h ESE 0.0 mm  6.6 °C 7.4 °C
Falzè di Piave (TV) 23/11/17 21.01 3.4 °C 94 % 2.5 °C 1022.4 hPa 0.0 Km/h --- 0.0 mm  2.8 °C 12.2 °C
Farra di Soligo (TV) 24/11/17 00.34 3.4 °C 79 % 0.1 °C 1026.1 hPa 0.0 Km/h NE 0.0 mm  3.3 °C 3.4 °C
Favaro Veneto (VE) 24/11/17 00.30 6.4 °C 87 % 4.4 °C 1021.8 hPa 1.6 Km/h NNW 0.0 mm  6.4 °C 6.5 °C
Feltre Celarda (BL) 24/11/17 00.34 -1.8 °C 95 % -2.5 °C 1020.7 hPa 0.0 Km/h NW 0.0 mm  -1.9 °C -1.6 °C
Ferrara di M.B. (VR) 24/11/17 00.25 1.3 °C 84 % -1.1 °C 1017.6 hPa 3.2 Km/h N 0.0 mm  1.3 °C 1.6 °C
Fiavè loc. Ballino (TN) 24/11/17 00.33 4.3 °C 78 % 0.8 °C 1017.8 hPa 3.9 Km/h N 0.0 mm  4.1 °C 4.3 °C
Filo di Argenta (FE) 24/11/17 00.35 4.0 °C 92 % 2.8 °C 1022.1 hPa 0.0 Km/h SSW 0.0 mm  4.0 °C 4.5 °C
Fogliano Redipuglia (GO) 24/11/17 00.40 9.8 °C 85 % 7.4 °C 1021.6 hPa 9.2 Km/h E 0.0 mm  8.5 °C 9.8 °C
Foligno (PG) 24/11/17 00.20 8.1 °C 82 % 5.2 °C 1022.6 hPa 6.4 Km/h ENE 0.0 mm  8.1 °C 8.3 °C
Fontanafredda (PN) 24/11/17 00.35 2.2 °C 97 % 1.7 °C 1021.4 hPa 2.0 Km/h NE 0.0 mm  2.2 °C 2.7 °C
Gaggiano (MI) 24/11/17 00.34 4.7 °C 97 % 4.3 °C 1021.3 hPa 0.0 Km/h NW 0.0 mm  4.7 °C 5.7 °C
Gallio (VI) 24/11/17 00.40 0.8 °C 86 % -1.3 °C 1022.2 hPa 1.6 Km/h NW 0.0 mm  0.7 °C 1.2 °C
Gardolo (TN) 24/11/17 00.33 1.2 °C 90 % -0.3 °C 1024.2 hPa 5.0 Km/h NE 0.0 mm  0.0 °C 0.0 °C
Genova Albaro (GE) 24/11/17 00.33 12.8 °C 80 % 9.4 °C 1026.0 hPa 3.7 Km/h N 0.0 mm  12.8 °C 13.0 °C
Genova Erzelli (GE) 24/11/17 00.33 14.0 °C 82 % 11.0 °C 1020.3 hPa 4.8 Km/h N 0.0 mm  13.4 °C 14.1 °C
Giazza (VR) 24/11/17 00.30 3.1 °C 88 % 1.3 °C 1021.2 hPa 0.0 Km/h N 0.0 mm  2.9 °C 3.1 °C
Gorizia (GO) 24/11/17 00.33 8.8 °C 82 % 5.9 °C 1021.7 hPa 0.0 Km/h N 0.0 mm  8.8 °C 9.0 °C
Gradisca d'Isonzo (GO) 24/11/17 00.34 7.4 °C 91 % 6.0 °C 1022.5 hPa 0.0 Km/h NE 0.0 mm  7.0 °C 7.4 °C
Iglesias (CI) 24/11/17 00.43 11.1 °C 81 % 8.0 °C 1022.9 hPa 0.0 Km/h NNE 0.0 mm  10.8 °C 11.2 °C
Isola d'Elba Marina di Campo (LI) 24/11/17 00.15 12.3 °C 94 % 11.4 °C 914.9 hPa 0.0 Km/h --- 0.0 mm  11.8 °C 12.4 °C
Jesolo (VE) 20/11/17 07.15 10.5 °C 36 % -4.0 °C 1016.8 hPa 0.0 Km/h --- 0.0 mm  4.8 °C 10.5 °C
Lavis (TN) 24/11/17 00.30 0.8 °C 90 % -0.6 °C 1023.2 hPa 0.0 Km/h WNW 0.0 mm  0.5 °C 1.4 °C
Laxolo (BG) 24/11/17 00.38 3.9 °C 83 % 1.3 °C 1016.4 hPa 0.0 Km/h N 0.0 mm  3.8 °C 10.7 °C
Legnago (VR) 24/11/17 00.35 8.5 °C 96 % 7.9 °C 1021.3 hPa 0.0 Km/h --- 0.0 mm  8.4 °C 8.5 °C
Lesmo (MB) 24/11/17 00.35 5.4 °C 91 % 4.0 °C 1021.7 hPa 0.0 Km/h --- 0.0 mm  5.4 °C 5.6 °C
Loano (SV) 24/11/17 00.35 14.4 °C 79 % 10.8 °C 1020.3 hPa 6.0 Km/h W 0.0 mm  14.2 °C 14.4 °C
Lovere (BG) 24/11/17 00.44 7.4 °C 50 % -2.3 °C 1020.9 hPa 4.3 Km/h WSW 0.0 mm  7.4 °C 7.8 °C
Lugagnano (VR) 24/11/17 00.33 5.8 °C 91 % 4.4 °C 1020.5 hPa 0.0 Km/h WNW 0.0 mm  5.8 °C 6.0 °C
Lusiana Sciessere (VI) 24/11/17 00.43 5.2 °C 84 % 2.7 °C 1020.9 hPa 0.0 Km/h N 0.0 mm  4.9 °C 5.2 °C
Malnate San Salvatore (VA) 24/11/17 00.40 3.9 °C 94 % 3.1 °C 1022.3 hPa 0.0 Km/h --- 0.0 mm  3.6 °C 4.2 °C
Marano Vicentino2 (VI) 22/11/17 11.40 8.8 °C 77 % 5.0 °C 1019.3 hPa 0.0 Km/h SE 0.0 mm  0.8 °C 8.8 °C
Margone (TN) 24/11/17 00.30 4.1 °C 77 % 0.4 °C 1024.0 hPa 7.6 Km/h N 0.0 mm  3.7 °C 4.2 °C
Marostica Valle San Floriano (VI) 24/11/17 00.33 5.4 °C 91 % 3.9 °C 1022.9 hPa 0.0 Km/h SE 0.0 mm  5.3 °C 5.4 °C
Marta (VT) 24/11/17 00.35 10.8 °C 91 % 9.4 °C 1019.9 hPa 0.0 Km/h WSW 0.0 mm  10.6 °C 10.8 °C
Martignano (TN) 24/11/17 00.35 3.8 °C 83 % 1.2 °C 1022.1 hPa 0.0 Km/h NNW 0.0 mm  3.8 °C 4.4 °C
Masiera di Bagnacavallo (RA) 24/11/17 00.29 5.0 °C 94 % 4.1 °C 1020.2 hPa 0.6 Km/h W 0.0 mm  5.0 °C 5.5 °C
Massarosa (LU) 24/11/17 00.34 13.2 °C 80 % 9.8 °C 1008.8 hPa 5.0 Km/h NE 0.0 mm  12.3 °C 13.2 °C
Massone di Arco (TN) 24/11/17 00.34 5.9 °C 80 % 2.7 °C 1020.5 hPa 2.0 Km/h NNE 0.0 mm  5.9 °C 6.4 °C
Mazzurega (VR) 24/11/17 00.27 6.0 °C 89 % 4.3 °C 1022.2 hPa 1.6 Km/h W 0.0 mm  6.0 °C 6.1 °C
Merlara (PD) 24/11/17 00.35 7.3 °C 94 % 6.4 °C 1020.8 hPa 0.0 Km/h --- 0.0 mm  7.3 °C 7.5 °C
Mezzana Bigli (PV) 24/11/17 00.50 4.2 °C 94 % 3.3 °C 1020.7 hPa 0.0 Km/h WNW 0.0 mm  4.2 °C 5.6 °C
Migliarino (FE) 24/11/17 00.50 7.2 °C 92 % 6.0 °C 1021.3 hPa 0.0 Km/h NW 0.0 mm  7.1 °C 7.6 °C
Miglionico (MT) 24/11/17 00.40 9.7 °C 78 % 6.1 °C 1020.6 hPa 1.6 Km/h SSW 0.0 mm  9.7 °C 10.2 °C
Miola di Piné (TN) 24/11/17 00.51 1.4 °C 90 % -0.1 °C 1023.2 hPa 6.4 Km/h NE 0.0 mm  1.4 °C 1.6 °C
Mirabella Imbaccari (CT) 24/11/17 00.38 10.0 °C 92 % 8.8 °C 1023.7 hPa 0.0 Km/h NW 0.0 mm  10.0 °C 10.3 °C
Molina (VR) 24/11/17 00.32 3.8 °C 73 % -0.6 °C 1021.6 hPa 2.6 Km/h N 0.0 mm  3.8 °C 4.7 °C
Monasterolo Torinese (TO) 20/09/37 02.00 7.7 °C 80 % 4.4 °C 1017.8 hPa 0.0 Km/h --- 0.0 mm  7.6 °C 8.3 °C
Mongrando San Michele (BI) 24/11/17 00.35 5.3 °C 96 % 4.7 °C 1020.9 hPa 0.0 Km/h NW 0.0 mm  5.2 °C 5.4 °C
Montagna in Valtellina (SO) 24/11/17 00.49 5.2 °C 78 % 1.6 °C 1022.8 hPa 0.0 Km/h ENE 0.0 mm  4.8 °C 5.3 °C
Montebello Vicentino loc. Selva (VI) 24/11/17 00.50 8.4 °C 69 % 3.0 °C 1022.0 hPa 2.4 Km/h NNE 0.0 mm  8.3 °C 8.8 °C
Montecchio Maggiore La Valle (VI) 24/11/17 00.46 4.4 °C 1 % -47.3 °C 1015.5 hPa 0.0 Km/h N 0.0 mm  4.4 °C 4.7 °C
Montecchio Maggiore Sant'Urbano (VI) 24/11/17 00.34 7.1 °C 74 % 2.7 °C 1022.6 hPa 5.0 Km/h NW 0.0 mm  7.1 °C 7.5 °C
Monteforte d'Alpone (VR) 24/11/17 00.35 6.5 °C 93 % 5.4 °C 1019.8 hPa 1.6 Km/h NNW 0.0 mm  6.0 °C 6.5 °C
Montelabbate (PU) 24/11/17 00.41 8.1 °C 89 % 6.4 °C 1021.6 hPa 3.5 Km/h SSW 0.0 mm  8.1 °C 9.4 °C
Montopoli in val d'Arno Loc. Capanne (PI) 24/11/17 00.50 7.7 °C 96 % 7.1 °C 1021.2 hPa 2.5 Km/h ENE 0.0 mm  0.0 °C 0.0 °C
Montorso Vicentino (VI) 24/11/17 00.50 6.7 °C 88 % 4.9 °C 1021.2 hPa 0.0 Km/h ENE 0.0 mm  6.7 °C 6.8 °C
Morbegno (SO) 24/11/17 00.50 5.9 °C 77 % 2.2 °C 1023.9 hPa 0.0 Km/h ESE 0.0 mm  5.8 °C 6.6 °C
Muzzano (BI) 24/11/17 00.20 7.5 °C 75 % 3.4 °C 1020.5 hPa 4.8 Km/h WNW 0.0 mm  7.5 °C 7.8 °C
Nichelino (TO) 24/11/17 00.40 5.3 °C 87 % 3.3 °C 1020.9 hPa 0.0 Km/h --- 0.0 mm  5.3 °C 6.1 °C
Novara (NO) 24/11/17 00.30 4.2 °C 91 % 2.9 °C 1021.1 hPa 0.0 Km/h --- 0.0 mm  4.1 °C 4.3 °C
Oppeano (VR) 19/11/17 21.55 3.4 °C 94 % 2.6 °C 1013.2 hPa 0.0 Km/h --- 0.0 mm  1.8 °C 11.3 °C
Oristano (OR) 24/11/17 00.51 8.1 °C 89 % 6.4 °C 1020.7 hPa 0.0 Km/h NNE 0.0 mm  8.1 °C 9.3 °C
Orosei (NU) 24/11/17 00.36 10.7 °C 84 % 8.1 °C 1020.6 hPa 9.7 Km/h NW 0.0 mm  10.7 °C 11.1 °C
Ortonovo (SP) 24/11/17 00.50 13.0 °C 85 % 10.5 °C 1016.3 hPa 5.7 Km/h SE 0.0 mm  12.9 °C 13.0 °C
Orvieto (TR) 23/11/17 22.46 8.7 °C 89 % 7.0 °C 1020.1 hPa 0.0 Km/h SE 0.0 mm  6.2 °C 15.6 °C
Ostana (CN) 23/11/17 20.06 1.7 °C 83 % -0.9 °C 1020.8 hPa 1.6 Km/h NE 0.0 mm  -1.2 °C 4.8 °C
Ostiano (CR) 24/11/17 00.41 0.0 °C 0 % 0.0 °C 0.0 hPa 0.0 Km/h [wind 0.0 mm  9.9 °C 9.9 °C
Ovaro loc. Liariis (UD) 24/11/17 00.30 1.1 °C 91 % -0.2 °C 1024.0 hPa 0.0 Km/h --- 0.0 mm  0.9 °C 1.4 °C
Pace del Mela (ME) 23/11/17 09.32 16.2 °C 63 % 9.2 °C 1023.2 hPa 3.9 Km/h N 0.0 mm  10.1 °C 16.8 °C
Padergnone (TN) 24/11/17 00.45 7.2 °C 74 % 2.9 °C 1022.9 hPa 10.0 Km/h N 0.0 mm  6.1 °C 7.2 °C
Parella (TO) 24/11/17 00.46 6.9 °C 86 % 4.8 °C 1019.5 hPa 1.6 Km/h NW 0.0 mm  6.3 °C 6.9 °C
Pastrengo (VR) 24/11/17 00.39 6.1 °C 92 % 4.9 °C 1022.9 hPa 0.0 Km/h NE 0.0 mm  6.1 °C 6.5 °C
Pastrengo Corné (VR) 24/11/17 00.35 6.0 °C 87 % 4.0 °C 1020.6 hPa 0.0 Km/h ENE 0.0 mm  5.8 °C 6.0 °C
Pecetto Torinese (TO) 24/11/17 00.47 6.7 °C 88 % 4.8 °C 1021.2 hPa 0.0 Km/h NE 0.0 mm  6.6 °C 6.9 °C
Pedara (CT) 24/11/17 00.50 8.3 °C 69 % 2.9 °C 1018.5 hPa 0.0 Km/h NNW 0.0 mm  7.9 °C 8.4 °C
Pedemonte (VR) 24/11/17 00.35 4.6 °C 90 % 3.1 °C 1021.2 hPa 0.0 Km/h N 0.0 mm  4.6 °C 4.7 °C
Pescantina Are (VR) 24/11/17 00.39 5.1 °C 92 % 3.9 °C 1021.2 hPa 0.0 Km/h WNW 0.0 mm  5.1 °C 5.7 °C
Pian di Castagné (VR) 19/11/17 16.11 8.5 °C 77 % 4.7 °C 1010.4 hPa 6.4 Km/h W 0.0 mm  4.6 °C 8.9 °C
Pila Valsesia (VC) 24/11/17 00.35 2.5 °C 88 % 0.7 °C 1019.4 hPa 0.0 Km/h SSW 0.0 mm  2.5 °C 3.4 °C
Piovà Massaia (AT) 24/11/17 00.50 7.1 °C 89 % 5.4 °C 1020.1 hPa 0.0 Km/h WNW 0.0 mm  6.9 °C 7.3 °C
Piraino contr. Fiumara (ME) 24/11/17 00.35 9.6 °C 92 % 8.4 °C 1023.0 hPa 0.0 Km/h E 0.0 mm  9.5 °C 9.7 °C
Pisa zona I Passi (PI) 24/11/17 00.50 10.7 °C 86 % 8.5 °C 1021.3 hPa 0.0 Km/h ENE 0.0 mm  10.1 °C 10.7 °C
Pojana Maggiore Cagnano (VI) 24/11/17 00.49 6.3 °C 90 % 4.8 °C 1021.3 hPa 0.0 Km/h NE 0.0 mm  6.3 °C 7.2 °C
Pomezia (RM) 24/11/17 00.50 13.4 °C 85 % 10.9 °C 1021.2 hPa 4.8 Km/h ESE 0.0 mm  13.0 °C 13.4 °C
Ponte San Nicolò (PD) 24/11/17 00.47 7.7 °C 90 % 6.1 °C 1021.6 hPa 3.2 Km/h WNW 0.0 mm  7.7 °C 8.5 °C
Ponte San Pellegrino (MO) 24/11/17 00.49 5.4 °C 99 % 5.3 °C 1011.9 hPa 0.0 Km/h SE 0.0 mm  5.2 °C 6.2 °C
Pordenone (PN) 24/11/17 00.30 4.9 °C 89 % 3.3 °C 1022.4 hPa 0.0 Km/h --- 0.0 mm  4.9 °C 5.4 °C
Pozzolo Formigaro (AL) 24/11/17 00.36 5.2 °C 97 % 4.8 °C 1021.8 hPa 0.0 Km/h SW 0.0 mm  5.0 °C 5.3 °C
Pray (BI) 24/11/17 00.50 2.8 °C 95 % 2.1 °C 1021.2 hPa 0.0 Km/h --- 0.0 mm  2.7 °C 3.2 °C
Reggello (FI) 20/11/17 14.00 11.6 °C 53 % 2.3 °C 1023.4 hPa 1.6 Km/h E 0.0 mm  1.9 °C 11.9 °C
Riccione (RN) 24/11/17 00.00 10.1 °C 92 % 8.8 °C 1021.8 hPa 0.0 Km/h W 0.0 mm  10.1 °C 10.1 °C
Rifugio Bocca di Selva (VR) 24/11/17 00.50 2.4 °C 81 % -0.5 °C 1022.7 hPa 6.4 Km/h NNW 0.0 mm  2.4 °C 2.7 °C
Rifugio Primaneve (VR) 24/11/17 00.31 2.2 °C 78 % -1.3 °C 1022.9 hPa 1.6 Km/h W 0.0 mm  1.8 °C 2.2 °C
Rimini (RN) 24/11/17 00.30 8.7 °C 90 % 7.2 °C 1021.9 hPa 0.0 Km/h WSW 0.0 mm  8.7 °C 8.9 °C
Rimini Zona Palas (RN) 24/11/17 00.33 9.2 °C 93 % 8.3 °C 1021.6 hPa 3.2 Km/h W 0.0 mm  9.2 °C 9.2 °C
Rivalta sul Mincio (MN) 24/11/17 00.34 9.1 °C 94 % 8.2 °C 1021.9 hPa 0.0 Km/h SW 0.0 mm  9.1 °C 9.2 °C
Romano d'Ezzelino Fellette (VI) 24/11/17 00.50 4.4 °C 82 % 1.6 °C 1025.2 hPa 8.9 Km/h WNW 0.0 mm  4.3 °C 4.9 °C
Ronciglione Centro (VT) 24/11/17 00.50 10.8 °C 95 % 10.0 °C 1022.0 hPa 0.0 Km/h NNE 0.0 mm  10.8 °C 11.0 °C
Rosolina (RO) 24/11/17 00.40 9.1 °C 96 % 8.5 °C 1022.2 hPa 1.6 Km/h W 0.0 mm  9.0 °C 9.1 °C
S. Giovanni Ilarione2 (VR) 24/11/17 00.35 5.1 °C 93 % 4.1 °C 1021.4 hPa 1.6 Km/h WNW 0.0 mm  5.1 °C 5.9 °C
S. Giovanni Lupatoto (VR) 24/11/17 00.30 6.7 °C 93 % 5.7 °C 1022.0 hPa 0.0 Km/h --- 0.0 mm  6.7 °C 6.8 °C
S. Giovanni Rotondo (FG) 24/11/17 00.35 6.9 °C 85 % 4.5 °C 1022.5 hPa 0.0 Km/h --- 0.0 mm  6.7 °C 7.0 °C
S. Lorenzo di Vittorio Veneto (TV) 24/11/17 00.50 7.8 °C 69 % 2.5 °C 1022.3 hPa 12.9 Km/h NW 0.0 mm  7.3 °C 7.8 °C
S. Lorenzo Nuovo (VT) 24/11/17 00.50 10.4 °C 79 % 6.9 °C 1019.8 hPa 4.7 Km/h S 0.0 mm  10.3 °C 10.4 °C
S. Maria di Zevio Loc. 3 Ponti (VR) 24/11/17 00.50 6.6 °C 91 % 5.0 °C 1023.6 hPa 3.0 Km/h N 0.0 mm  6.2 °C 6.7 °C
S. Maria Maddalena (RO) 24/11/17 00.45 8.3 °C 95 % 7.8 °C 1020.7 hPa 0.0 Km/h N 0.0 mm  8.0 °C 8.3 °C
S. Martino Lupari (PD) 24/11/17 01.30 4.7 °C 97 % 4.3 °C 1022.4 hPa 0.0 Km/h --- 0.0 mm  4.7 °C 5.1 °C
S. Rocco di Villabalzana (VI) 24/11/17 00.53 7.0 °C 92 % 6.1 °C 1021.2 hPa 0.0 Km/h SW 0.0 mm  6.8 °C 7.0 °C
S. Zeno di Mont. Prada (VR) 24/11/17 00.35 5.1 °C 81 % 2.1 °C 1020.6 hPa 0.0 Km/h --- 0.0 mm  4.3 °C 5.3 °C
Sacile (PN) 24/11/17 00.41 3.4 °C 95 % 2.7 °C 1021.2 hPa 0.0 Km/h NE 0.0 mm  2.7 °C 3.4 °C
Salcedo (VI) 24/11/17 00.50 6.8 °C 74 % 2.5 °C 1019.6 hPa 3.0 Km/h WNW 0.0 mm  6.4 °C 6.8 °C
San Benedetto del Tronto (AP) 24/11/17 00.01 11.3 °C 68 % 5.6 °C 1020.0 hPa 0.0 Km/h WSW 0.0 mm  8.9 °C 13.0 °C
San Giovanni la Punta Trappeto (CT) 24/11/17 00.35 10.8 °C 84 % 8.2 °C 1022.9 hPa 4.8 Km/h NNW 0.0 mm  10.8 °C 10.9 °C
San Nazario (VI) 24/11/17 00.36 6.8 °C 77 % 3.1 °C 1021.2 hPa 12.2 Km/h NW 0.0 mm  6.6 °C 6.8 °C
San Pietro in Cariano (VR) 24/11/17 00.49 5.6 °C 91 % 4.2 °C 1021.1 hPa 5.7 Km/h N 0.0 mm  5.6 °C 5.7 °C
San Potito Lugo (RA) 21/11/17 19.05 13.5 °C 57 % 5.2 °C 1008.7 hPa 0.0 Km/h NW 0.0 mm  0.4 °C 16.4 °C
San Salvo3 (CH) 24/11/17 00.51 9.1 °C 82 % 6.2 °C 1019.6 hPa 0.0 Km/h SSE 0.0 mm  8.9 °C 9.2 °C
San Vito (CA) 24/11/17 00.51 10.8 °C 86 % 8.6 °C 1015.7 hPa 0.0 Km/h N 0.0 mm  10.8 °C 10.9 °C
San Zeno di Mont. Loc. Castello (VR) 24/11/17 00.50 6.0 °C 69 % 0.6 °C 1020.9 hPa 2.0 Km/h SSW 0.0 mm  5.9 °C 6.2 °C
Santarcangelo di Romagna (RN) 24/11/17 00.50 6.6 °C 43 % -5.1 °C 1022.0 hPa 0.0 Km/h WNW 0.0 mm  6.6 °C 7.4 °C
Sarcedo (VI) 24/11/17 00.50 4.5 °C 91 % 3.2 °C 1020.3 hPa 0.0 Km/h N 0.0 mm  4.2 °C 4.8 °C
Savelli (KR) 24/11/17 00.50 7.7 °C 75 % 3.5 °C 1023.3 hPa 0.0 Km/h SSE 0.0 mm  7.3 °C 7.8 °C
Schio (VI) 24/11/17 00.20 6.2 °C 87 % 4.2 °C 1022.9 hPa 3.2 Km/h NW 0.0 mm  6.1 °C 6.2 °C
Schio Monte Magré (VI) 24/11/17 00.51 5.4 °C 90 % 3.9 °C 0.0 hPa 3.2 Km/h W 0.0 mm  5.4 °C 5.5 °C
Sinnai (CA) 23/11/17 23.55 12.3 °C 89 % 10.6 °C 1021.6 hPa 0.0 Km/h --- 0.0 mm  10.6 °C 21.0 °C
Soave Borgo Bassano (VR) 24/11/17 00.35 5.6 °C 93 % 4.5 °C 1021.8 hPa 0.0 Km/h WSW 0.0 mm  5.6 °C 6.4 °C
Sona Loc. La Colombara (VR) 24/11/17 00.00 6.1 °C 95 % 5.0 °C 1018.4 hPa 0.0 Km/h NNW 0.0 mm  6.1 °C 6.1 °C
Soriso (NO) 24/11/17 00.30 7.2 °C 89 % 5.5 °C 1021.8 hPa 0.0 Km/h W 0.0 mm  6.5 °C 7.2 °C
Staranzano (GO) 23/11/17 20.30 8.2 °C 86 % 5.9 °C 1021.9 hPa 0.0 Km/h SE 0.0 mm  7.7 °C 9.6 °C
Stiore - Monteveglio (BO) 24/11/17 00.50 6.4 °C 93 % 5.4 °C 1018.4 hPa 0.0 Km/h ENE 0.0 mm  6.1 °C 6.7 °C
Taio Mollaro (TN) 24/11/17 00.50 0.4 °C 91 % -0.9 °C 1023.2 hPa 0.0 Km/h NNW 0.0 mm  0.4 °C 10.2 °C
Taranto (TA) 24/11/17 00.35 11.7 °C 89 % 10.0 °C 1018.4 hPa 0.7 Km/h E 0.0 mm  11.6 °C 11.8 °C
Todi (PG) 24/11/17 00.35 10.2 °C 79 % 6.7 °C 1021.7 hPa 0.0 Km/h N 0.0 mm  10.1 °C 10.2 °C
Tombolo (PD) 24/11/17 00.51 4.4 °C 91 % 3.0 °C 1022.2 hPa 0.0 Km/h N 0.0 mm  4.4 °C 4.8 °C
Torino Regio Parco (TO) 24/11/17 00.51 7.1 °C 88 % 5.3 °C 1022.9 hPa 0.0 Km/h SW 0.0 mm  7.1 °C 7.6 °C
Torre Annunziata (NA) 24/11/17 00.30 11.6 °C 86 % 9.4 °C 1022.7 hPa 2.4 Km/h N 0.0 mm  11.6 °C 11.7 °C
Torremaggiore (FG) 24/11/17 00.51 10.9 °C 91 % 9.5 °C 1021.1 hPa 0.0 Km/h SE 0.0 mm  10.9 °C 11.2 °C
Torri (FI) 23/11/17 23.00 8.3 °C 95 % 7.5 °C 1021.6 hPa 0.0 Km/h --- 0.0 mm  6.9 °C 13.4 °C
Torrita di Siena (SI) 24/11/17 00.30 5.0 °C 97 % 4.6 °C 1023.8 hPa 0.0 Km/h --- 0.0 mm  4.5 °C 5.0 °C
Trambileno (TN) 24/11/17 00.32 1.9 °C 91 % 0.6 °C 1021.2 hPa 0.0 Km/h N 0.0 mm  1.9 °C 1.9 °C
Tregnago Loc. Centro (VR) 24/11/17 00.35 7.6 °C 82 % 4.7 °C 1015.4 hPa 4.8 Km/h SE 0.0 mm  6.8 °C 7.6 °C
Trento (TN) 24/11/17 00.51 4.3 °C 79 % 1.0 °C 1022.3 hPa 6.4 Km/h N 0.0 mm  4.3 °C 4.8 °C
Treviso (TV) 24/11/17 00.50 5.2 °C 91 % 3.9 °C 1022.6 hPa 0.0 Km/h N 0.0 mm  5.1 °C 5.3 °C
Tuscania (VT) 23/11/17 23.30 11.8 °C 90 % 10.2 °C 1022.6 hPa 2.6 Km/h E 0.0 mm  8.4 °C 17.5 °C
Val Lastaro (VI) 23/11/17 23.49 -2.5 °C 96 % -2.8 °C 1024.1 hPa 0.0 Km/h W 0.2 mm  -3.6 °C 6.3 °C
Valdobbiadene San Pietro di Barbozza (TV) 24/11/17 00.30 8.0 °C 77 % 4.2 °C 1020.7 hPa 0.0 Km/h --- 0.0 mm  7.9 °C 8.1 °C
Valentano (VT) 24/11/17 00.50 10.7 °C 95 % 10.0 °C 1020.7 hPa 9.6 Km/h E 0.0 mm  10.7 °C 10.8 °C
Valenza (AL) 24/11/17 00.41 6.5 °C 94 % 5.6 °C 1020.9 hPa 1.6 Km/h WSW 0.0 mm  6.5 °C 6.7 °C
Valli del Pasubio loc. Gisbenti (VI) 24/11/17 00.50 2.6 °C 77 % -1.0 °C 977.0 hPa 0.0 Km/h --- 0.0 mm  2.6 °C 2.8 °C
Varese Ligure (SP) 24/11/17 00.51 9.8 °C 43 % -2.2 °C 1014.5 hPa 0.0 Km/h N 0.0 mm  9.8 °C 10.1 °C
Vasto (CH) 23/11/17 21.59 7.5 °C 10 % -22.1 °C 1022.6 hPa 2.4 Km/h N 0.0 mm  6.1 °C 17.7 °C
Vattaro fraz. Pian dei Pradi (TN) 24/11/17 00.52 2.6 °C 84 % 0.1 °C 1023.9 hPa 7.8 Km/h NNW 0.0 mm  1.9 °C 2.7 °C
Vazzo Roveré Veronese (VR) 24/11/17 00.51 5.5 °C 75 % 1.4 °C 1018.6 hPa 1.6 Km/h NNW 0.0 mm  4.9 °C 5.5 °C
Verona Bgo Venezia (iz3sly) (VR) 24/11/17 00.34 5.5 °C 91 % 4.2 °C 1020.2 hPa 0.0 Km/h SE 0.0 mm  5.5 °C 6.1 °C
Vestenanova (VR) 24/11/17 00.50 5.4 °C 90 % 3.9 °C 1024.8 hPa 3.6 Km/h N 0.0 mm  5.4 °C 5.4 °C
Vicenza Campedello (VI) 24/11/17 00.56 3.3 °C 96 % 2.8 °C 1022.4 hPa 0.0 Km/h WNW 0.0 mm  3.3 °C 4.4 °C
Vicenza Moracchino (VI) 24/11/17 00.51 4.9 °C 95 % 4.2 °C 1020.6 hPa 0.0 Km/h SW 0.0 mm  4.9 °C 5.4 °C
Vicenza S. Lazzaro (VI) 24/11/17 00.51 5.7 °C 90 % 4.4 °C 1020.8 hPa 0.0 Km/h NE 0.0 mm  5.7 °C 6.1 °C
Vicenza San Gaetano (VI) 23/11/17 22.24 6.1 °C 94 % 5.2 °C 1021.6 hPa 0.0 Km/h SE 0.0 mm  6.1 °C 13.9 °C
Vidor (TV) 24/11/17 00.36 2.9 °C 89 % 1.3 °C 1020.5 hPa 0.0 Km/h NNW 0.0 mm  2.9 °C 3.0 °C
Vieste (FG) 24/11/17 00.51 10.1 °C 78 % 6.4 °C 1023.6 hPa 8.3 Km/h W 0.0 mm  9.4 °C 10.1 °C
Vigasio (VR) 24/11/17 00.30 7.5 °C 96 % 6.9 °C 1019.9 hPa 0.0 Km/h --- 0.0 mm  7.3 °C 7.6 °C
Vigevano (PV) 21/11/17 18.36 10.4 °C 72 % 5.6 °C 1010.3 hPa 0.0 Km/h N 0.0 mm  5.8 °C 12.9 °C
Viozene Toria (CN) 24/11/17 00.50 3.5 °C 88 % 1.7 °C 1009.5 hPa 4.0 Km/h NW 0.0 mm  3.5 °C 3.7 °C
Viterbo Santa Barbara (VT) 23/11/17 21.22 10.7 °C 87 % 8.6 °C 1021.9 hPa 0.0 Km/h E 0.0 mm  5.6 °C 14.4 °C
Vitorchiano Pallone (VT) 23/11/17 18.50 12.6 °C 78 % 8.8 °C 1020.7 hPa 3.2 Km/h S 0.0 mm  8.3 °C 14.6 °C
Vittorio Veneto (TV) 24/11/17 00.20 6.6 °C 79 % 3.2 °C 1021.2 hPa 0.0 Km/h N 0.0 mm  6.6 °C 6.9 °C
Vittorio Veneto Parco Fenderl (TV) 24/11/17 00.20 7.8 °C 73 % 3.2 °C 1021.9 hPa 4.8 Km/h NNW 0.0 mm  7.8 °C 8.1 °C
Volpago del Montello (TV) 24/11/17 00.30 4.2 °C 92 % 3.0 °C 1021.7 hPa 0.0 Km/h --- 0.0 mm  4.2 °C 4.4 °C
 
(*) = Precipitazioni nelle ultime 24h.
Dati non aggiornati nell'ultima ora.
   
In collaborazione con: